createdAt,value
2022-12-23T00:00:43.709Z,23.25
2022-12-23T00:03:25.438Z,22.40
2022-12-23T00:05:52.797Z,22.00
2022-12-23T00:08:20.438Z,22.30
2022-12-23T00:10:49.084Z,20.33
2022-12-23T00:13:35.472Z,20.83
2022-12-23T00:16:08.721Z,21.20
2022-12-23T00:18:35.738Z,21.63
2022-12-23T00:21:08.979Z,21.02
2022-12-23T00:23:39.011Z,20.80
2022-12-23T00:26:07.711Z,19.98
2022-12-23T00:28:34.611Z,22.15
2022-12-23T00:31:04.996Z,20.38
2022-12-23T00:33:35.220Z,21.70
2022-12-23T00:36:03.040Z,21.58
2022-12-23T00:38:48.369Z,21.13
2022-12-23T00:41:36.853Z,21.35
2022-12-23T00:44:05.080Z,21.08
2022-12-23T00:46:32.550Z,20.48
2022-12-23T00:49:18.265Z,22.40
2022-12-23T00:51:45.789Z,20.85
2022-12-23T00:54:12.740Z,23.48
2022-12-23T00:56:39.950Z,21.30
2022-12-23T00:59:07.000Z,22.08
2022-12-23T01:01:53.018Z,22.33
2022-12-23T01:04:38.697Z,21.40
2022-12-23T01:07:06.708Z,21.77
2022-12-23T01:09:34.444Z,22.40
2022-12-23T01:12:02.061Z,21.90
2022-12-23T01:14:29.661Z,22.13
2022-12-23T01:16:57.102Z,25.48
2022-12-23T01:19:24.482Z,22.55
2022-12-23T01:21:51.744Z,23.50
2022-12-23T01:24:19.173Z,22.08
2022-12-23T01:26:46.364Z,22.58
2022-12-23T01:29:13.264Z,23.73
2022-12-23T01:31:40.655Z,23.38
2022-12-23T01:34:07.692Z,22.25
2022-12-23T01:36:34.859Z,22.60
2022-12-23T01:39:02.032Z,23.13
2022-12-23T01:41:50.825Z,22.80
2022-12-23T01:45:09.029Z,22.25
2022-12-23T01:47:39.511Z,23.00
2022-12-23T01:50:12.862Z,23.75
2022-12-23T01:53:08.878Z,22.35
2022-12-23T01:55:44.499Z,23.80
2022-12-23T01:58:16.767Z,23.73
2022-12-23T02:01:02.600Z,22.88
2022-12-23T02:03:42.360Z,23.88
2022-12-23T02:07:04.155Z,23.13
2022-12-23T02:09:34.375Z,22.10
2022-12-23T02:12:26.062Z,23.05
2022-12-23T02:15:26.762Z,23.08
2022-12-23T02:18:31.162Z,23.15
2022-12-23T02:21:20.785Z,22.17
2022-12-23T02:24:02.784Z,22.00
2022-12-23T02:26:47.857Z,24.45
2022-12-23T02:29:52.177Z,21.80
2022-12-23T02:32:43.998Z,22.45
2022-12-23T02:35:19.093Z,22.00
2022-12-23T02:38:09.941Z,23.20
2022-12-23T02:40:57.764Z,16.27
2022-12-23T02:43:33.760Z,22.55
2022-12-23T02:46:10.286Z,21.55
2022-12-23T02:48:45.723Z,22.67
2022-12-23T02:51:15.769Z,20.95
2022-12-23T02:53:49.763Z,22.17
2022-12-23T02:56:20.203Z,20.15
2022-12-23T02:58:54.594Z,19.55
2022-12-23T03:01:24.924Z,19.23
2022-12-23T03:03:51.877Z,19.27
2022-12-23T03:06:41.426Z,18.55
2022-12-23T03:09:08.826Z,19.73
2022-12-23T03:11:51.190Z,18.83
2022-12-23T03:14:36.490Z,21.15
2022-12-23T03:17:31.528Z,19.10
2022-12-23T03:20:24.596Z,20.98
2022-12-23T03:23:08.213Z,21.65
2022-12-23T03:25:45.377Z,22.20
2022-12-23T03:28:27.008Z,21.42
2022-12-23T03:30:59.181Z,23.00
2022-12-23T03:33:39.731Z,23.05
2022-12-23T03:36:15.743Z,23.73
2022-12-23T03:38:45.156Z,21.83
2022-12-23T03:41:18.354Z,21.85
2022-12-23T03:43:54.716Z,22.33
2022-12-23T03:46:31.090Z,22.35
2022-12-23T03:49:03.547Z,22.90
2022-12-23T03:51:38.476Z,22.73
2022-12-23T03:54:17.298Z,24.25
2022-12-23T03:56:51.083Z,23.63
2022-12-23T03:59:23.476Z,22.83
2022-12-23T04:02:23.612Z,22.83
2022-12-23T04:05:03.236Z,21.05
2022-12-23T04:07:33.075Z,21.40
2022-12-23T04:10:00.647Z,22.27
2022-12-23T04:12:30.119Z,22.00
2022-12-23T04:14:57.682Z,21.23
2022-12-23T04:17:24.719Z,22.30
2022-12-23T04:19:53.003Z,21.13
2022-12-23T04:22:19.895Z,21.52
2022-12-23T04:24:47.050Z,21.30
2022-12-23T04:27:15.534Z,21.25
2022-12-23T04:29:43.674Z,20.88
2022-12-23T04:32:10.916Z,19.40
2022-12-23T04:34:38.363Z,22.52
2022-12-23T04:37:05.420Z,22.38
2022-12-23T04:39:32.744Z,22.75
2022-12-23T04:41:59.654Z,24.23
2022-12-23T04:44:26.850Z,23.27
2022-12-23T04:46:53.894Z,24.83
2022-12-23T04:49:21.080Z,23.63
2022-12-23T04:51:48.018Z,23.50
2022-12-23T04:54:15.247Z,23.02
2022-12-23T04:56:42.173Z,22.33
2022-12-23T04:59:10.812Z,21.65
2022-12-23T05:01:37.758Z,23.85
2022-12-23T05:04:05.328Z,23.30
2022-12-23T05:06:32.333Z,23.30
2022-12-23T05:08:59.507Z,22.52
2022-12-23T05:11:26.475Z,21.90
2022-12-23T05:13:53.721Z,21.17
2022-12-23T05:16:20.740Z,19.73
2022-12-23T05:18:47.987Z,20.00
2022-12-23T05:21:14.929Z,21.25
2022-12-23T05:23:42.496Z,20.92
2022-12-23T05:26:10.584Z,19.75
2022-12-23T05:28:38.362Z,18.63
2022-12-23T05:31:07.600Z,20.27
2022-12-23T05:33:35.664Z,19.80
2022-12-23T05:36:03.802Z,19.48
2022-12-23T05:38:31.754Z,20.02
2022-12-23T05:40:59.190Z,20.02
2022-12-23T05:43:26.463Z,21.33
2022-12-23T05:45:53.733Z,23.20
2022-12-23T05:48:21.096Z,25.75
2022-12-23T05:50:52.616Z,21.75
2022-12-23T05:53:20.746Z,22.38
2022-12-23T05:55:48.011Z,20.13
2022-12-23T05:58:16.674Z,20.02
2022-12-23T06:00:43.896Z,20.38
2022-12-23T06:03:12.017Z,19.95
2022-12-23T06:05:40.210Z,20.23
2022-12-23T06:08:07.401Z,19.55
2022-12-23T06:10:34.305Z,20.75
2022-12-23T06:13:01.468Z,21.73
2022-12-23T06:15:28.378Z,20.48
2022-12-23T06:17:56.201Z,20.67
2022-12-23T06:20:23.091Z,20.63
2022-12-23T06:22:50.296Z,20.63
2022-12-23T06:25:17.351Z,19.60
2022-12-23T06:27:44.600Z,21.02
2022-12-23T06:30:12.592Z,20.27
2022-12-23T06:32:40.184Z,20.70
2022-12-23T06:35:08.475Z,20.50
2022-12-23T06:37:35.919Z,21.58
2022-12-23T06:40:03.213Z,19.85
2022-12-23T06:42:30.450Z,19.67
2022-12-23T06:44:57.317Z,19.65
2022-12-23T06:47:24.534Z,20.88
2022-12-23T06:49:51.454Z,19.90
2022-12-23T06:52:18.689Z,20.02
2022-12-23T06:54:45.605Z,20.73
2022-12-23T06:57:13.042Z,21.55
2022-12-23T06:59:39.894Z,20.98
2022-12-23T07:02:09.604Z,21.00
2022-12-23T07:04:36.699Z,21.05
2022-12-23T07:07:03.966Z,20.55
2022-12-23T07:09:30.872Z,20.33
2022-12-23T07:11:58.126Z,19.52
2022-12-23T07:14:24.979Z,21.35
2022-12-23T07:16:52.327Z,20.33
2022-12-23T07:19:19.280Z,19.05
2022-12-23T07:21:46.445Z,19.75
2022-12-23T07:24:13.300Z,19.40
2022-12-23T07:26:40.510Z,19.73
2022-12-23T07:29:07.792Z,18.85
2022-12-23T07:31:39.295Z,19.33
2022-12-23T07:34:07.917Z,18.67
2022-12-23T07:36:35.213Z,19.25
2022-12-23T07:39:02.202Z,18.80
2022-12-23T07:41:29.541Z,19.02
2022-12-23T07:44:05.225Z,18.60
2022-12-23T07:46:32.577Z,19.02
2022-12-23T07:48:59.810Z,18.95
2022-12-23T07:51:27.085Z,18.38
2022-12-23T07:53:53.968Z,19.00
2022-12-23T07:56:21.421Z,18.73
2022-12-23T07:58:53.010Z,17.85
2022-12-23T08:01:21.004Z,17.77
2022-12-23T08:03:48.593Z,18.33
2022-12-23T08:06:16.784Z,18.30
2022-12-23T08:08:46.151Z,17.67
2022-12-23T08:11:15.151Z,18.08
2022-12-23T08:13:43.833Z,17.58
2022-12-23T08:16:12.508Z,18.70
2022-12-23T08:18:41.022Z,18.00
2022-12-23T08:21:19.084Z,18.23
2022-12-23T08:23:47.451Z,18.90
2022-12-23T08:26:17.542Z,16.77
2022-12-23T08:28:45.493Z,19.55
2022-12-23T08:31:17.788Z,17.55
2022-12-23T08:33:49.076Z,17.80
2022-12-23T08:38:55.299Z,17.05
2022-12-23T08:41:25.835Z,17.02
2022-12-23T08:43:53.017Z,18.67
2022-12-23T08:46:20.615Z,17.58
2022-12-23T08:48:49.837Z,19.40
2022-12-23T08:51:20.176Z,17.65
2022-12-23T08:53:48.293Z,17.95
2022-12-23T08:56:20.697Z,18.20
2022-12-23T08:58:51.315Z,18.80
2022-12-23T09:01:20.393Z,18.95
2022-12-23T09:03:47.912Z,18.02
2022-12-23T09:06:29.907Z,18.38
2022-12-23T09:08:58.024Z,18.98
2022-12-23T09:11:27.537Z,18.98
2022-12-23T09:13:55.400Z,20.10
2022-12-23T09:16:23.614Z,17.27
2022-12-23T09:18:50.853Z,18.27
2022-12-23T09:21:21.245Z,18.50
2022-12-23T09:23:48.638Z,18.00
2022-12-23T09:26:25.460Z,18.88
2022-12-23T09:28:52.725Z,19.60
2022-12-23T09:31:21.040Z,19.40
2022-12-23T09:33:50.528Z,17.55
2022-12-23T09:36:18.191Z,18.50
2022-12-23T09:38:45.412Z,17.67
2022-12-23T09:41:33.068Z,18.85
2022-12-23T09:44:35.161Z,18.75
2022-12-23T09:47:05.929Z,17.63
2022-12-23T09:49:34.391Z,18.83
2022-12-23T09:52:05.348Z,19.80
2022-12-23T09:55:01.341Z,19.07
2022-12-23T09:57:42.650Z,17.50
2022-12-23T10:00:18.238Z,18.17
2022-12-23T10:02:51.506Z,18.23
2022-12-23T10:05:31.360Z,18.50
2022-12-23T10:08:03.994Z,17.50
2022-12-23T10:10:30.817Z,19.30
2022-12-23T10:13:02.105Z,17.10
2022-12-23T10:15:47.406Z,19.13
2022-12-23T10:18:45.095Z,17.20
2022-12-23T10:21:20.676Z,17.60
2022-12-23T10:23:52.360Z,18.52
2022-12-23T10:26:43.748Z,18.48
2022-12-23T10:29:23.891Z,17.77
2022-12-23T10:32:05.461Z,18.35
2022-12-23T10:34:39.745Z,18.60
2022-12-23T10:37:29.904Z,19.83
2022-12-23T10:40:15.914Z,19.23
2022-12-23T10:43:02.119Z,18.23
2022-12-23T10:45:32.279Z,18.67
2022-12-23T10:48:23.486Z,18.98
2022-12-23T10:51:26.128Z,19.15
2022-12-23T10:54:05.108Z,19.13
2022-12-23T10:56:32.605Z,19.15
2022-12-23T10:59:00.978Z,22.35
2022-12-23T11:01:31.110Z,20.75
2022-12-23T11:04:06.889Z,19.70
2022-12-23T11:06:39.497Z,20.65
2022-12-23T11:09:12.743Z,19.88
2022-12-23T11:12:04.377Z,20.20
2022-12-23T11:14:35.503Z,20.40
2022-12-23T11:17:05.686Z,20.33
2022-12-23T11:19:32.903Z,21.40
2022-12-23T11:22:01.129Z,20.13
2022-12-23T11:24:36.608Z,21.95
2022-12-23T11:27:14.039Z,22.13
2022-12-23T11:29:47.066Z,22.02
2022-12-23T11:32:25.560Z,24.83
2022-12-23T11:34:54.171Z,23.10
2022-12-23T11:37:40.992Z,23.20
2022-12-23T11:40:24.360Z,22.92
2022-12-23T11:43:18.192Z,21.17
2022-12-23T11:45:45.189Z,22.85
2022-12-23T11:48:30.973Z,23.02
2022-12-23T11:51:01.399Z,24.77
2022-12-23T11:53:29.769Z,22.38
2022-12-23T11:56:02.381Z,22.10
2022-12-23T11:58:32.844Z,22.55
2022-12-23T12:01:20.620Z,19.90
2022-12-23T12:03:53.941Z,23.30
2022-12-23T12:06:22.622Z,23.20
2022-12-23T12:08:53.267Z,21.45
2022-12-23T12:11:43.930Z,22.10
2022-12-23T12:14:21.770Z,23.67
2022-12-23T12:16:58.003Z,22.58
2022-12-23T12:19:31.687Z,23.38
2022-12-23T12:22:05.201Z,23.27
2022-12-23T12:24:39.436Z,22.58
2022-12-23T12:27:08.629Z,23.52
2022-12-23T12:29:48.932Z,22.85
2022-12-23T12:32:38.893Z,21.80
2022-12-23T12:35:14.002Z,22.65
2022-12-23T12:37:43.974Z,22.48
2022-12-23T12:40:14.222Z,22.27
2022-12-23T12:42:44.472Z,23.05
2022-12-23T12:45:22.135Z,22.67
2022-12-23T12:48:18.183Z,23.55
2022-12-23T12:51:08.786Z,22.23
2022-12-23T12:53:40.624Z,23.13
2022-12-23T12:56:20.714Z,22.40
2022-12-23T12:58:48.831Z,24.58
2022-12-23T13:01:31.058Z,23.23
2022-12-23T13:04:04.011Z,23.38
2022-12-23T13:07:12.933Z,24.52
2022-12-23T13:10:23.588Z,24.17
2022-12-23T13:12:53.654Z,24.38
2022-12-23T13:15:28.457Z,23.65
2022-12-23T13:18:25.284Z,24.95
2022-12-23T13:21:03.507Z,24.58
2022-12-23T13:24:10.133Z,23.67
2022-12-23T13:26:43.613Z,23.85
2022-12-23T13:29:58.005Z,25.25
2022-12-23T13:32:43.904Z,24.67
2022-12-23T13:35:20.278Z,25.23
2022-12-23T13:38:29.895Z,24.90
2022-12-23T13:40:57.161Z,27.60
2022-12-23T13:43:26.329Z,24.55
2022-12-23T13:45:55.582Z,24.42
2022-12-23T13:48:32.358Z,24.33
2022-12-23T13:51:10.698Z,25.73
2022-12-23T13:54:03.965Z,24.75
2022-12-23T13:57:01.050Z,23.50
2022-12-23T13:59:39.801Z,25.77
2022-12-23T14:02:57.623Z,24.65
2022-12-23T14:05:30.901Z,23.00
2022-12-23T14:08:05.350Z,23.25
2022-12-23T14:10:33.269Z,23.40
2022-12-23T14:13:07.259Z,21.80
2022-12-23T14:15:46.761Z,21.88
2022-12-23T14:18:16.603Z,22.58
2022-12-23T14:21:32.557Z,24.13
2022-12-23T14:24:10.017Z,22.45
2022-12-23T14:26:59.910Z,22.42
2022-12-23T14:30:06.537Z,23.38
2022-12-23T14:32:47.944Z,23.77
2022-12-23T14:38:03.767Z,21.77
2022-12-23T14:40:39.873Z,22.23
2022-12-23T14:43:27.797Z,23.00
2022-12-23T14:45:55.989Z,24.05
2022-12-23T14:48:48.101Z,23.13
2022-12-23T14:51:31.608Z,22.85
2022-12-23T14:53:58.611Z,23.38
2022-12-23T14:56:40.497Z,24.50
2022-12-23T14:59:20.304Z,22.92
2022-12-23T15:01:51.583Z,24.20
2022-12-23T15:04:36.684Z,22.75
2022-12-23T15:07:13.324Z,22.77
2022-12-23T15:10:01.142Z,23.02
2022-12-23T15:12:43.648Z,24.55
2022-12-23T15:15:31.036Z,21.23
2022-12-23T15:18:10.644Z,22.58
2022-12-23T15:20:37.852Z,22.10
2022-12-23T15:23:11.397Z,24.05
2022-12-23T15:25:45.991Z,24.08
2022-12-23T15:28:19.798Z,22.63
2022-12-23T15:30:51.484Z,21.70
2022-12-23T15:36:12.355Z,22.70
2022-12-23T15:38:39.734Z,23.42
2022-12-23T15:41:15.895Z,23.08
2022-12-23T15:43:44.038Z,22.02
2022-12-23T15:46:28.579Z,23.60
2022-12-23T15:48:56.937Z,22.67
2022-12-23T15:54:39.017Z,22.52
2022-12-23T15:57:06.365Z,22.20
2022-12-23T15:59:38.863Z,23.35
2022-12-23T16:05:32.823Z,24.08
2022-12-23T16:08:29.742Z,23.20
2022-12-23T16:11:00.889Z,22.58
2022-12-23T16:13:27.988Z,23.45
2022-12-23T16:15:55.243Z,24.80
2022-12-23T16:18:31.744Z,23.70
2022-12-23T16:21:02.259Z,23.52
2022-12-23T16:23:30.778Z,22.73
2022-12-23T16:26:00.084Z,24.40
2022-12-23T16:28:41.690Z,23.75
2022-12-23T16:31:10.726Z,24.13
2022-12-23T16:33:43.827Z,27.15
2022-12-23T16:36:19.952Z,23.70
2022-12-23T16:38:48.311Z,25.05
2022-12-23T16:41:15.526Z,23.70
2022-12-23T16:43:49.604Z,24.45
2022-12-23T16:46:22.335Z,24.17
2022-12-23T16:48:56.010Z,24.92
2022-12-23T16:51:23.873Z,24.83
2022-12-23T16:53:52.836Z,24.40
2022-12-23T16:56:22.149Z,24.58
2022-12-23T16:58:49.405Z,24.30
2022-12-23T17:01:26.157Z,24.50
2022-12-23T17:03:54.066Z,24.30
2022-12-23T17:06:22.156Z,25.10
2022-12-23T17:08:49.696Z,24.33
2022-12-23T17:11:25.942Z,24.65
2022-12-23T17:13:57.895Z,23.08
2022-12-23T17:16:29.066Z,22.45
2022-12-23T17:18:56.134Z,23.70
2022-12-23T17:21:36.733Z,24.25
2022-12-23T17:24:11.410Z,24.13
2022-12-23T17:26:38.823Z,25.35
2022-12-23T17:29:06.344Z,24.90
2022-12-23T17:31:34.475Z,25.88
2022-12-23T17:34:02.511Z,25.42
2022-12-23T17:36:30.295Z,25.85
2022-12-23T17:38:57.382Z,26.23
2022-12-23T17:41:27.408Z,24.55
2022-12-23T17:43:54.480Z,25.60
2022-12-23T17:46:21.976Z,24.50
2022-12-23T17:48:49.185Z,25.90
2022-12-23T17:51:21.670Z,25.60
2022-12-23T17:53:55.160Z,24.67
2022-12-23T17:56:26.495Z,25.42
2022-12-23T17:58:53.509Z,25.27
2022-12-23T18:01:29.963Z,25.27
2022-12-23T18:03:59.146Z,25.27
2022-12-23T18:06:28.820Z,24.15
2022-12-23T18:08:59.532Z,25.10
2022-12-23T18:11:50.609Z,25.70
2022-12-23T18:14:24.472Z,22.73
2022-12-23T18:16:51.735Z,24.40
2022-12-23T18:19:20.352Z,24.23
2022-12-23T18:21:47.767Z,24.17
2022-12-23T18:24:15.777Z,24.60
2022-12-23T18:26:43.640Z,23.75
2022-12-23T18:29:10.628Z,23.15
2022-12-23T18:31:50.599Z,24.50
2022-12-23T18:34:18.636Z,24.60
2022-12-23T18:36:48.320Z,24.92
2022-12-23T18:39:15.548Z,23.45
2022-12-23T18:41:43.102Z,23.17
2022-12-23T18:44:19.460Z,22.85
2022-12-23T18:46:48.001Z,23.55
2022-12-23T18:49:15.069Z,22.10
2022-12-23T18:51:42.397Z,22.25
2022-12-23T18:54:14.277Z,22.27
2022-12-23T18:56:41.688Z,22.73
2022-12-23T18:59:27.380Z,22.33
2022-12-23T19:01:56.947Z,21.73
2022-12-23T19:04:23.885Z,21.63
2022-12-23T19:06:51.201Z,21.80
2022-12-23T19:09:21.254Z,21.05
2022-12-23T19:11:50.736Z,21.90
2022-12-23T19:14:17.623Z,22.27
2022-12-23T19:16:50.843Z,21.25
2022-12-23T19:19:19.583Z,22.25
2022-12-23T19:21:47.052Z,22.58
2022-12-23T19:24:14.124Z,21.85
2022-12-23T19:26:41.913Z,22.95
2022-12-23T19:29:09.124Z,20.85
2022-12-23T19:31:36.308Z,23.05
2022-12-23T19:34:03.229Z,23.00
2022-12-23T19:36:30.944Z,20.98
2022-12-23T19:38:58.555Z,23.60
2022-12-23T19:41:26.834Z,19.83
2022-12-23T19:43:54.050Z,20.58
2022-12-23T19:46:21.321Z,20.83
2022-12-23T19:48:54.768Z,19.98
2022-12-23T19:51:22.004Z,19.90
2022-12-23T19:53:51.398Z,18.77
2022-12-23T19:56:23.551Z,19.40
2022-12-23T19:58:51.167Z,20.08
2022-12-23T20:01:24.230Z,20.15
2022-12-23T20:03:53.201Z,21.17
2022-12-23T20:06:25.162Z,21.95
2022-12-23T20:08:58.033Z,21.77
2022-12-23T20:11:30.933Z,22.20
2022-12-23T20:13:59.254Z,22.45
2022-12-23T20:16:26.991Z,22.70
2022-12-23T20:18:54.705Z,22.67
2022-12-23T20:21:40.131Z,22.95
2022-12-23T20:24:07.848Z,21.08
2022-12-23T20:26:35.292Z,22.00
2022-12-23T20:29:03.202Z,22.40
2022-12-23T20:31:33.840Z,22.92
2022-12-23T20:34:03.897Z,22.70
2022-12-23T20:36:33.379Z,24.50
2022-12-23T20:39:02.207Z,23.90
2022-12-23T20:41:31.200Z,25.55
2022-12-23T20:46:46.297Z,24.30
2022-12-23T20:49:13.526Z,24.75
2022-12-23T20:51:40.499Z,23.70
2022-12-23T20:54:07.919Z,23.40
2022-12-23T20:56:34.793Z,24.63
2022-12-23T20:59:03.907Z,24.80
2022-12-23T21:01:40.085Z,24.83
2022-12-23T21:04:13.020Z,24.55
2022-12-23T21:06:40.211Z,25.50
2022-12-23T21:09:09.640Z,26.63
2022-12-23T21:11:39.358Z,25.27
2022-12-23T21:14:08.051Z,24.15
2022-12-23T21:16:37.098Z,27.25
2022-12-23T21:19:07.763Z,25.20
2022-12-23T21:21:35.229Z,24.58
2022-12-23T21:24:04.919Z,25.60
2022-12-23T21:26:33.984Z,26.48
2022-12-23T21:29:03.904Z,26.98
2022-12-23T21:31:32.775Z,26.80
2022-12-23T21:34:00.368Z,27.33
2022-12-23T21:36:31.242Z,29.58
2022-12-23T21:39:00.024Z,30.40
2022-12-23T21:41:30.611Z,29.73
2022-12-23T21:43:59.387Z,30.08
2022-12-23T21:46:27.930Z,28.42
2022-12-23T21:48:56.436Z,26.33
2022-12-23T21:51:36.926Z,27.15
2022-12-23T21:54:07.306Z,28.45
2022-12-23T21:56:34.269Z,29.27
2022-12-23T21:59:04.873Z,29.02
2022-12-23T22:01:32.609Z,29.50
2022-12-23T22:04:00.351Z,28.52
2022-12-23T22:06:30.065Z,28.20
2022-12-23T22:08:58.629Z,27.48
2022-12-23T22:11:28.590Z,28.60
2022-12-23T22:13:59.704Z,27.45
2022-12-23T22:16:29.243Z,27.20
2022-12-23T22:18:58.921Z,27.90
2022-12-23T22:21:27.919Z,26.70
2022-12-23T22:23:56.880Z,26.30
2022-12-23T22:26:26.851Z,28.95
2022-12-23T22:28:57.484Z,28.35
2022-12-23T22:31:32.377Z,26.70
2022-12-23T22:34:00.179Z,27.17
2022-12-23T22:36:27.778Z,26.90
2022-12-23T22:38:57.420Z,24.40
2022-12-23T22:41:25.545Z,25.35
2022-12-23T22:43:52.747Z,26.90
2022-12-23T22:46:20.111Z,27.38
2022-12-23T22:48:47.525Z,27.58
2022-12-23T22:51:21.269Z,27.75
2022-12-23T22:53:49.013Z,27.33
2022-12-23T22:56:17.719Z,26.73
2022-12-23T22:58:45.375Z,29.45
2022-12-23T23:01:28.524Z,27.83
2022-12-23T23:04:00.510Z,28.23
2022-12-23T23:09:07.767Z,27.30
2022-12-23T23:11:35.127Z,27.88
2022-12-23T23:14:03.423Z,29.83
2022-12-23T23:16:30.648Z,30.15
2022-12-23T23:18:59.080Z,29.25
2022-12-23T23:21:26.607Z,29.48
2022-12-23T23:23:53.983Z,29.08
2022-12-23T23:26:21.097Z,29.25
2022-12-23T23:28:48.429Z,29.77
2022-12-23T23:34:02.920Z,27.90
2022-12-23T23:36:29.971Z,30.00
2022-12-23T23:38:57.465Z,28.20
2022-12-23T23:41:24.492Z,29.55
2022-12-23T23:43:52.299Z,28.42
2022-12-23T23:46:19.463Z,27.70
2022-12-23T23:48:46.805Z,27.27
2022-12-23T23:51:13.699Z,28.33
2022-12-23T23:53:41.072Z,28.33
2022-12-23T23:56:08.884Z,30.58
2022-12-23T23:58:37.071Z,28.80
